Time;durP1;ratioP1;P1;durP2;ratioP2;P2;SDS_P1;SDS_P2;PMS_P1;PMS_P2;Temp;Humidity;BMP_temperature;BMP_pressure;BME280_temperature;BME280_humidity;BME280_pressure;Samples;Min_cycle;Max_cycle;Signal;HPM_P1;HPM_P2
2021/09/24 00:00:47;;;;;;;34.63;17.73;;;15.00;99.90;;;;;;5031974;28;20703;-64
2021/09/24 00:03:14;;;;;;;33.07;19.67;;;15.00;99.90;;;;;;5031909;28;20210;-63
2021/09/24 00:05:40;;;;;;;27.53;20.37;;;15.00;99.90;;;;;;5031308;28;20211;-64
2021/09/24 00:08:07;;;;;;;34.20;21.30;;;15.00;99.90;;;;;;5031599;28;20280;-63
2021/09/24 00:10:34;;;;;;;32.90;21.00;;;14.90;99.90;;;;;;5031844;28;20256;-63
2021/09/24 00:13:02;;;;;;;32.33;20.67;;;14.90;99.90;;;;;;5031927;28;20210;-64
2021/09/24 00:15:29;;;;;;;40.70;22.40;;;14.90;99.90;;;;;;5031455;28;20264;-63
2021/09/24 00:17:55;;;;;;;36.70;22.93;;;14.90;99.90;;;;;;5031752;28;20226;-63
2021/09/24 00:20:22;;;;;;;40.53;23.77;;;14.90;99.90;;;;;;5031466;28;20222;-64
2021/09/24 00:22:49;;;;;;;39.90;25.50;;;14.90;99.90;;;;;;5031562;28;20623;-64
2021/09/24 00:25:16;;;;;;;36.93;24.03;;;14.90;99.90;;;;;;5031478;28;20616;-64
2021/09/24 00:27:42;;;;;;;40.10;25.07;;;15.00;99.90;;;;;;5031574;28;20230;-63
2021/09/24 00:30:11;;;;;;;43.67;24.27;;;15.00;99.90;;;;;;5031557;28;20701;-64
2021/09/24 00:32:38;;;;;;;42.97;25.47;;;15.00;99.90;;;;;;5031456;28;20256;-64
2021/09/24 00:35:07;;;;;;;41.63;24.93;;;15.00;99.90;;;;;;5031788;28;20241;-64
2021/09/24 00:37:33;;;;;;;40.60;26.83;;;15.00;99.90;;;;;;5035149;28;20280;-64
2021/09/24 00:40:00;;;;;;;45.87;27.47;;;15.00;99.90;;;;;;5035489;28;20226;-64
2021/09/24 00:42:27;;;;;;;48.53;27.27;;;15.00;99.90;;;;;;5035263;28;20268;-64
2021/09/24 00:44:53;;;;;;;53.93;27.20;;;15.00;99.90;;;;;;5034991;28;20218;-64
2021/09/24 00:47:22;;;;;;;49.07;27.93;;;15.00;99.90;;;;;;5035066;28;20635;-64
2021/09/24 00:49:50;;;;;;;54.07;27.97;;;15.00;99.90;;;;;;5034926;28;20758;-64
2021/09/24 00:52:19;;;;;;;45.43;27.23;;;15.00;99.90;;;;;;5035089;28;20733;-63
2021/09/24 00:54:47;;;;;;;47.87;28.73;;;15.00;99.90;;;;;;5034507;28;20292;-64
2021/09/24 00:57:14;;;;;;;45.60;26.93;;;15.00;99.90;;;;;;5035057;28;20234;-63
2021/09/24 00:59:41;;;;;;;51.97;29.00;;;15.00;99.90;;;;;;5034834;28;20230;-64
2021/09/24 01:02:08;;;;;;;49.27;28.93;;;15.00;99.90;;;;;;5034812;28;20675;-63
2021/09/24 01:04:36;;;;;;;54.37;29.43;;;15.00;99.90;;;;;;5034454;28;20217;-64
2021/09/24 01:07:03;;;;;;;46.67;29.27;;;14.90;99.90;;;;;;5034667;28;20229;-64
2021/09/24 01:09:31;;;;;;;50.80;29.80;;;15.00;99.90;;;;;;5034626;28;20674;-63
2021/09/24 01:11:57;;;;;;;46.80;27.77;;;15.00;99.90;;;;;;5034702;28;20683;-64
2021/09/24 01:14:27;;;;;;;45.27;28.43;;;15.00;99.90;;;;;;5034580;28;20683;-64
2021/09/24 01:16:55;;;;;;;47.57;28.27;;;15.00;99.90;;;;;;5034336;28;20649;-63
2021/09/24 01:19:22;;;;;;;46.70;28.00;;;15.00;99.90;;;;;;5034838;28;20644;-64
2021/09/24 01:21:50;;;;;;;52.40;29.83;;;15.00;99.90;;;;;;5034513;28;20230;-64
2021/09/24 01:24:17;;;;;;;48.53;30.40;;;15.00;99.90;;;;;;5034687;28;20587;-64
2021/09/24 01:26:47;;;;;;;56.53;30.47;;;15.00;99.90;;;;;;5033958;28;20248;-64
2021/09/24 01:29:14;;;;;;;60.40;31.63;;;15.10;99.90;;;;;;5034580;28;20202;-64
2021/09/24 01:31:41;;;;;;;54.87;32.53;;;15.00;99.90;;;;;;5034470;28;20283;-64
2021/09/24 01:34:07;;;;;;;62.33;32.43;;;15.00;99.90;;;;;;5034221;28;20793;-64
2021/09/24 01:36:34;;;;;;;57.60;33.57;;;15.00;99.90;;;;;;5033897;28;20215;-64
2021/09/24 01:39:05;;;;;;;61.83;35.07;;;15.00;99.90;;;;;;5034195;28;20256;-64
2021/09/24 01:41:31;;;;;;;63.53;34.37;;;15.00;99.90;;;;;;5034218;28;20615;-64
2021/09/24 01:43:58;;;;;;;63.03;36.10;;;15.00;99.90;;;;;;5033855;28;20256;-64
2021/09/24 01:46:25;;;;;;;67.17;36.20;;;15.00;99.90;;;;;;5033864;28;20237;-64
2021/09/24 01:48:52;;;;;;;65.53;37.27;;;15.00;99.90;;;;;;5034045;28;20291;-65
2021/09/24 01:51:18;;;;;;;64.07;36.40;;;15.00;99.90;;;;;;5034068;28;20199;-64
2021/09/24 01:53:45;;;;;;;65.73;37.87;;;15.00;99.90;;;;;;5033962;28;20607;-65
2021/09/24 01:56:13;;;;;;;64.73;38.07;;;15.10;99.90;;;;;;5033434;28;20241;-64
2021/09/24 01:58:40;;;;;;;69.20;39.27;;;15.00;99.90;;;;;;5033532;28;20226;-64
2021/09/24 02:01:06;;;;;;;80.07;40.60;;;15.00;99.90;;;;;;5033959;28;20230;-64
2021/09/24 02:03:33;;;;;;;67.73;38.07;;;15.00;99.90;;;;;;5034010;28;20207;-65
2021/09/24 02:06:00;;;;;;;73.47;38.93;;;15.00;99.90;;;;;;5033676;28;20202;-65
2021/09/24 02:08:26;;;;;;;63.77;37.17;;;15.10;99.90;;;;;;5033696;28;20288;-64
2021/09/24 02:10:53;;;;;;;67.67;37.13;;;15.00;99.90;;;;;;5033503;28;20671;-64
2021/09/24 02:13:21;;;;;;;64.40;36.13;;;15.00;99.90;;;;;;5033695;28;20847;-65
2021/09/24 02:15:48;;;;;;;62.77;35.33;;;15.10;99.90;;;;;;5033257;28;20740;-64
2021/09/24 02:18:14;;;;;;;59.80;35.17;;;15.00;99.90;;;;;;5033550;28;20776;-65
2021/09/24 02:20:41;;;;;;;63.20;35.57;;;15.00;99.90;;;;;;5033195;28;20772;-64
2021/09/24 02:23:07;;;;;;;64.10;34.47;;;15.00;99.90;;;;;;5033420;28;20206;-64
2021/09/24 02:25:34;;;;;;;56.27;31.63;;;15.00;99.90;;;;;;5032900;28;20211;-64
2021/09/24 02:28:01;;;;;;;52.50;31.67;;;15.10;99.90;;;;;;5033061;28;20633;-63
2021/09/24 02:30:29;;;;;;;52.40;30.87;;;15.10;99.90;;;;;;5033404;28;20203;-62
2021/09/24 02:32:55;;;;;;;48.93;30.13;;;15.00;99.90;;;;;;5033240;28;20252;-64
2021/09/24 02:35:22;;;;;;;48.70;29.37;;;15.00;99.90;;;;;;5032872;28;20218;-64
2021/09/24 02:37:49;;;;;;;47.07;29.40;;;15.00;99.90;;;;;;5032919;28;20718;-64
2021/09/24 02:40:15;;;;;;;49.87;30.83;;;15.00;99.90;;;;;;5032816;28;20223;-64
2021/09/24 02:42:42;;;;;;;50.83;29.73;;;15.00;99.90;;;;;;5032983;28;20618;-64
2021/09/24 02:45:09;;;;;;;51.67;30.50;;;15.00;99.90;;;;;;5032539;28;20671;-64
2021/09/24 02:47:37;;;;;;;50.87;30.50;;;14.90;99.90;;;;;;5032776;28;20230;-64
2021/09/24 02:50:05;;;;;;;50.80;31.33;;;15.00;99.90;;;;;;5032799;28;20251;-64
2021/09/24 02:52:32;;;;;;;55.30;33.07;;;15.00;99.90;;;;;;5032830;28;20207;-64
2021/09/24 02:54:59;;;;;;;56.83;33.57;;;14.90;99.90;;;;;;5031387;28;20737;-64
2021/09/24 02:57:25;;;;;;;60.87;35.70;;;15.00;99.90;;;;;;5032117;28;20638;-63
2021/09/24 02:59:52;;;;;;;61.87;35.10;;;15.00;99.90;;;;;;5032349;28;20622;-63
2021/09/24 03:02:19;;;;;;;61.63;35.87;;;15.00;99.90;;;;;;5032702;28;20222;-64
2021/09/24 03:04:47;;;;;;;65.53;39.13;;;15.00;99.90;;;;;;5032262;28;20273;-63
2021/09/24 03:07:13;;;;;;;62.70;38.50;;;15.00;99.90;;;;;;5032392;28;20229;-64
2021/09/24 03:09:40;;;;;;;61.67;39.57;;;15.00;99.90;;;;;;5032631;28;20214;-63
2021/09/24 03:12:07;;;;;;;72.57;40.23;;;15.00;99.90;;;;;;5032638;28;20260;-63
2021/09/24 03:14:34;;;;;;;70.30;42.77;;;15.00;99.90;;;;;;5032284;28;20206;-63
2021/09/24 03:17:00;;;;;;;67.30;40.47;;;15.00;99.90;;;;;;5032273;28;20231;-64
2021/09/24 03:19:27;;;;;;;68.77;40.47;;;15.00;99.90;;;;;;5032414;28;20214;-63
2021/09/24 03:21:55;;;;;;;69.93;41.53;;;15.00;99.90;;;;;;5031999;28;20272;-64
2021/09/24 03:24:22;;;;;;;74.07;42.00;;;15.00;99.90;;;;;;5032478;28;20230;-63
2021/09/24 03:26:49;;;;;;;74.43;43.73;;;15.00;99.90;;;;;;5031907;28;20206;-63
2021/09/24 03:29:16;;;;;;;69.73;41.40;;;15.00;99.90;;;;;;5032295;28;20209;-63
2021/09/24 03:31:43;;;;;;;64.43;40.27;;;15.00;99.90;;;;;;5032152;28;20252;-63
2021/09/24 03:34:10;;;;;;;73.67;41.43;;;15.00;99.90;;;;;;5032151;28;20240;-64
2021/09/24 03:36:39;;;;;;;73.57;42.17;;;15.00;99.90;;;;;;5031592;28;20218;-63
2021/09/24 03:39:12;;;;;;;73.77;41.43;;;15.00;99.90;;;;;;5032113;28;20213;-63
2021/09/24 03:41:40;;;;;;;78.80;42.43;;;15.00;99.90;;;;;;5032179;28;20320;-63
2021/09/24 03:44:07;;;;;;;71.73;41.63;;;14.90;99.90;;;;;;5031939;28;20268;-64
2021/09/24 03:46:34;;;;;;;77.47;42.23;;;14.90;99.90;;;;;;5031621;28;20262;-63
2021/09/24 03:49:00;;;;;;;76.77;41.23;;;14.80;99.90;;;;;;5031712;28;20670;-63
2021/09/24 03:51:27;;;;;;;77.07;41.40;;;14.90;99.90;;;;;;5031942;28;20670;-64
2021/09/24 03:53:54;;;;;;;79.83;42.13;;;14.80;99.90;;;;;;5031920;28;20275;-63
2021/09/24 03:56:23;;;;;;;78.83;41.40;;;14.90;99.90;;;;;;5031642;28;20210;-63
2021/09/24 03:58:50;;;;;;;71.03;41.23;;;14.80;99.90;;;;;;5031848;28;20632;-63
2021/09/24 04:01:17;;;;;;;66.57;39.17;;;14.90;99.90;;;;;;5031055;28;20275;-63
2021/09/24 04:03:43;;;;;;;65.47;39.10;;;14.90;99.90;;;;;;5031781;28;20610;-63
2021/09/24 04:06:11;;;;;;;68.57;39.80;;;14.90;99.90;;;;;;5031528;28;20210;-63
2021/09/24 04:08:38;;;;;;;73.87;40.43;;;14.90;99.90;;;;;;5031605;28;20595;-63
2021/09/24 04:11:05;;;;;;;74.53;39.73;;;14.90;99.90;;;;;;5034167;28;20206;-64
2021/09/24 04:13:33;;;;;;;83.73;41.37;;;14.90;99.90;;;;;;5035982;28;20210;-63
2021/09/24 04:16:00;;;;;;;77.07;42.13;;;14.90;99.90;;;;;;5035173;28;20209;-63
2021/09/24 04:18:26;;;;;;;81.43;43.30;;;14.90;99.90;;;;;;5035969;28;20230;-63
2021/09/24 04:20:53;;;;;;;82.67;42.73;;;14.90;99.90;;;;;;5035662;28;20276;-64
2021/09/24 04:23:20;;;;;;;82.80;43.13;;;14.90;99.90;;;;;;5035584;28;20214;-64
2021/09/24 04:25:46;;;;;;;87.13;42.50;;;14.80;99.90;;;;;;5035315;28;20210;-64
2021/09/24 04:28:13;;;;;;;90.53;42.43;;;14.80;99.90;;;;;;5035396;28;20234;-63
2021/09/24 04:30:41;;;;;;;90.20;44.27;;;14.90;99.90;;;;;;5035495;28;20206;-63
2021/09/24 04:33:08;;;;;;;86.97;44.17;;;14.90;99.90;;;;;;5035483;28;20209;-64
2021/09/24 04:35:34;;;;;;;97.10;44.63;;;14.90;99.90;;;;;;5035231;28;20206;-64
2021/09/24 04:38:01;;;;;;;92.40;46.70;;;14.90;99.90;;;;;;5034951;28;20234;-64
2021/09/24 04:40:28;;;;;;;105.00;45.73;;;14.90;99.90;;;;;;5035331;28;20202;-64
2021/09/24 04:42:54;;;;;;;104.80;46.07;;;14.90;99.90;;;;;;5035130;28;20280;-64
2021/09/24 04:45:21;;;;;;;101.10;45.90;;;14.90;99.90;;;;;;5034951;28;20213;-64
2021/09/24 04:47:49;;;;;;;100.37;44.87;;;14.90;99.90;;;;;;5035228;28;20272;-64
2021/09/24 04:50:16;;;;;;;104.70;45.40;;;14.90;99.90;;;;;;5035150;28;20244;-64
2021/09/24 04:52:42;;;;;;;106.83;45.60;;;14.90;99.90;;;;;;5035227;28;20233;-63
2021/09/24 04:55:10;;;;;;;110.60;47.10;;;14.90;99.90;;;;;;5034726;28;20210;-64
2021/09/24 04:57:38;;;;;;;105.60;45.43;;;14.90;99.90;;;;;;5034705;28;20242;-64
2021/09/24 05:00:09;;;;;;;114.20;47.63;;;14.90;99.90;;;;;;5035092;28;20210;-63
2021/09/24 05:02:35;;;;;;;105.30;43.97;;;14.80;99.90;;;;;;5035120;28;20230;-64
2021/09/24 05:05:04;;;;;;;112.53;45.40;;;14.90;99.90;;;;;;5034709;28;20210;-64
2021/09/24 05:07:30;;;;;;;111.77;45.73;;;14.90;99.90;;;;;;5034790;28;20440;-64
2021/09/24 05:09:57;;;;;;;113.03;47.47;;;14.90;99.90;;;;;;5035092;28;20214;-63
2021/09/24 05:12:24;;;;;;;107.80;45.27;;;14.80;99.90;;;;;;5034591;28;20256;-63
2021/09/24 05:14:50;;;;;;;116.27;46.33;;;14.80;99.90;;;;;;5034568;28;20260;-63
2021/09/24 05:17:17;;;;;;;105.87;45.27;;;14.80;99.90;;;;;;5034692;28;20280;-64
2021/09/24 05:19:44;;;;;;;115.00;46.90;;;14.80;99.90;;;;;;5034686;28;20202;-64
2021/09/24 05:22:12;;;;;;;122.37;47.63;;;14.80;99.90;;;;;;5033816;28;20630;-63
2021/09/24 05:24:38;;;;;;;109.40;45.47;;;14.80;99.90;;;;;;5033815;28;20206;-64
2021/09/24 05:27:05;;;;;;;101.10;43.87;;;14.90;99.90;;;;;;5034272;28;20234;-64
2021/09/24 05:29:32;;;;;;;98.53;43.50;;;14.90;99.90;;;;;;5034558;28;20206;-64
2021/09/24 05:31:58;;;;;;;103.50;44.37;;;14.90;99.90;;;;;;5034574;28;20253;-64
2021/09/24 05:34:25;;;;;;;98.60;44.20;;;14.90;99.90;;;;;;5034329;28;20232;-64
2021/09/24 05:36:52;;;;;;;103.20;44.83;;;14.90;99.90;;;;;;5033812;28;20230;-64
2021/09/24 05:39:20;;;;;;;97.13;41.97;;;15.00;99.90;;;;;;5033982;28;20629;-64
2021/09/24 05:41:47;;;;;;;92.40;41.27;;;15.00;99.90;;;;;;5034370;28;20248;-64
2021/09/24 05:44:13;;;;;;;99.77;44.40;;;14.90;99.90;;;;;;5034048;28;20269;-64
2021/09/24 05:46:41;;;;;;;105.00;44.83;;;14.90;99.90;;;;;;5033879;28;20236;-64
2021/09/24 05:49:08;;;;;;;104.03;44.67;;;14.90;99.90;;;;;;5034270;28;20584;-64
2021/09/24 05:51:34;;;;;;;107.77;43.80;;;14.90;99.90;;;;;;5034090;28;20624;-64
2021/09/24 05:54:01;;;;;;;107.07;46.70;;;14.90;99.90;;;;;;5033963;28;20578;-64
2021/09/24 05:56:29;;;;;;;99.07;43.37;;;15.00;99.90;;;;;;5033613;28;20218;-64
2021/09/24 05:58:56;;;;;;;103.67;44.23;;;15.00;99.90;;;;;;5027766;28;20210;-63
2021/09/24 06:01:22;;;;;;;103.93;45.33;;;15.00;99.90;;;;;;5030460;28;20222;-63
2021/09/24 06:03:49;;;;;;;102.80;43.50;;;14.90;99.90;;;;;;5033567;28;20710;-63
2021/09/24 06:06:16;;;;;;;106.90;45.33;;;14.90;99.90;;;;;;5033241;28;20214;-62
2021/09/24 06:08:42;;;;;;;116.17;46.23;;;14.90;99.90;;;;;;5033347;28;20737;-63
2021/09/24 06:11:09;;;;;;;108.13;45.33;;;15.00;99.90;;;;;;5033493;28;20205;-63
2021/09/24 06:13:37;;;;;;;114.00;45.83;;;15.00;99.90;;;;;;5033460;28;20206;-63
2021/09/24 06:16:04;;;;;;;122.50;45.67;;;15.00;99.90;;;;;;5033096;28;20670;-63
2021/09/24 06:18:31;;;;;;;117.77;46.37;;;14.90;99.90;;;;;;5033216;28;20230;-63
2021/09/24 06:20:58;;;;;;;114.50;45.20;;;15.00;99.90;;;;;;5032984;28;20210;-63
2021/09/24 06:23:25;;;;;;;108.87;43.87;;;15.00;99.90;;;;;;5033238;28;20910;-64
2021/09/24 06:25:52;;;;;;;123.80;43.60;;;15.10;99.90;;;;;;5032991;28;20213;-63
2021/09/24 06:28:19;;;;;;;123.23;46.23;;;15.00;99.90;;;;;;5033251;28;20229;-63
2021/09/24 06:30:47;;;;;;;119.80;44.17;;;15.10;99.90;;;;;;5033211;28;20272;-63
2021/09/24 06:33:13;;;;;;;112.10;44.90;;;15.10;99.90;;;;;;5032208;28;20268;-63
2021/09/24 06:35:40;;;;;;;114.83;42.07;;;15.10;99.90;;;;;;5032399;28;20237;-63
2021/09/24 06:38:07;;;;;;;112.90;41.83;;;15.00;99.90;;;;;;5033360;28;20230;-62
2021/09/24 06:40:34;;;;;;;105.07;41.77;;;15.00;99.90;;;;;;5033099;28;20210;-62
2021/09/24 06:43:01;;;;;;;99.23;40.67;;;15.00;99.90;;;;;;5032996;28;20233;-63
2021/09/24 06:45:27;;;;;;;102.40;40.33;;;15.00;99.90;;;;;;5032606;28;20206;-63
2021/09/24 06:47:55;;;;;;;91.20;39.27;;;15.00;99.90;;;;;;5031585;28;20317;-63
2021/09/24 06:50:22;;;;;;;107.17;41.20;;;15.00;99.90;;;;;;5032662;28;20297;-63
2021/09/24 06:52:49;;;;;;;99.90;41.63;;;14.90;99.90;;;;;;5032892;28;20576;-62
2021/09/24 06:55:21;;;;;;;98.77;41.03;;;14.90;99.90;;;;;;5032464;28;20209;-63
2021/09/24 06:57:48;;;;;;;94.07;39.10;;;14.90;99.90;;;;;;5032399;28;20238;-63
2021/09/24 07:00:15;;;;;;;105.43;41.73;;;14.90;99.90;;;;;;5032554;28;20206;-63
2021/09/24 07:02:42;;;;;;;86.57;37.63;;;15.00;99.90;;;;;;5032196;28;20755;-63
2021/09/24 07:05:11;;;;;;;90.87;40.43;;;15.00;99.90;;;;;;5032378;28;20202;-63
2021/09/24 07:07:38;;;;;;;84.87;36.63;;;15.00;99.90;;;;;;5032691;28;20272;-63
2021/09/24 07:10:05;;;;;;;82.67;37.47;;;14.90;99.90;;;;;;5024473;28;20626;-66
2021/09/24 07:12:32;;;;;;;79.37;37.70;;;15.00;99.90;;;;;;5032185;28;20225;-63
2021/09/24 07:14:58;;;;;;;80.70;37.93;;;14.90;99.90;;;;;;5032064;28;20604;-63
2021/09/24 07:17:25;;;;;;;90.50;38.63;;;14.90;99.90;;;;;;5032387;28;20262;-63
2021/09/24 07:19:52;;;;;;;86.03;39.13;;;15.00;99.90;;;;;;5031957;28;20210;-63
2021/09/24 07:22:20;;;;;;;92.37;39.73;;;15.00;99.90;;;;;;5032236;28;20226;-63
2021/09/24 07:24:49;;;;;;;80.17;38.43;;;15.00;99.90;;;;;;5031932;28;20213;-63
2021/09/24 07:27:15;;;;;;;80.00;38.23;;;15.00;99.90;;;;;;5032271;28;20222;-64
2021/09/24 07:29:42;;;;;;;75.20;36.87;;;15.00;99.90;;;;;;5031746;28;20642;-64
2021/09/24 07:32:08;;;;;;;75.20;37.73;;;15.10;99.90;;;;;;5032200;28;20213;-63
2021/09/24 07:34:35;;;;;;;73.80;37.17;;;15.10;99.90;;;;;;5031809;28;20232;-63
2021/09/24 07:37:02;;;;;;;71.77;37.27;;;15.10;99.90;;;;;;5031933;28;20222;-63
2021/09/24 07:39:30;;;;;;;76.00;37.17;;;15.10;99.90;;;;;;5031859;28;20211;-63
2021/09/24 07:41:57;;;;;;;69.23;35.47;;;15.10;99.90;;;;;;5031511;28;20222;-64
2021/09/24 07:44:23;;;;;;;69.90;36.83;;;15.10;99.90;;;;;;5031246;28;20210;-64
2021/09/24 07:46:51;;;;;;;71.10;37.83;;;15.10;99.90;;;;;;5031447;28;20292;-63
2021/09/24 07:49:18;;;;;;;69.87;36.40;;;15.10;99.90;;;;;;5031716;28;20234;-64
2021/09/24 07:51:45;;;;;;;73.10;38.03;;;15.10;99.90;;;;;;5031543;28;20296;-64
2021/09/24 07:54:11;;;;;;;80.00;39.07;;;15.10;99.90;;;;;;5031739;28;20264;-67
2021/09/24 07:56:39;;;;;;;69.63;37.50;;;15.10;99.90;;;;;;5031083;28;20638;-63
2021/09/24 07:59:06;;;;;;;70.93;36.80;;;15.10;99.90;;;;;;5030786;28;20217;-66
2021/09/24 08:01:33;;;;;;;63.97;36.13;;;15.10;99.90;;;;;;5029310;28;20214;-66
2021/09/24 08:04:00;;;;;;;60.60;35.23;;;15.10;99.90;;;;;;5030907;28;20214;-64
2021/09/24 08:06:26;;;;;;;57.47;33.53;;;15.10;99.90;;;;;;5031091;28;20617;-64
2021/09/24 08:08:53;;;;;;;59.10;34.03;;;15.00;99.90;;;;;;5031271;28;20230;-64
2021/09/24 08:11:20;;;;;;;58.17;33.07;;;15.00;99.90;;;;;;5031008;28;20206;-65
2021/09/24 08:13:48;;;;;;;55.03;31.07;;;15.10;99.90;;;;;;5030234;28;20285;-65
2021/09/24 08:16:15;;;;;;;53.30;31.67;;;15.10;99.90;;;;;;5031064;28;20213;-65
2021/09/24 08:18:41;;;;;;;54.40;31.83;;;15.10;99.90;;;;;;5031448;28;20230;-65
2021/09/24 08:21:08;;;;;;;60.43;32.43;;;15.10;99.90;;;;;;5031002;28;20214;-65
2021/09/24 08:23:37;;;;;;;53.50;31.60;;;15.10;99.90;;;;;;5031154;28;20226;-65
2021/09/24 08:26:05;;;;;;;58.50;32.27;;;15.10;99.90;;;;;;5030595;28;20682;-64
2021/09/24 08:28:31;;;;;;;57.10;31.07;;;15.10;99.90;;;;;;5031093;28;20226;-65
2021/09/24 08:30:59;;;;;;;53.87;30.70;;;15.00;99.90;;;;;;5031230;28;20206;-64
2021/09/24 08:33:27;;;;;;;54.00;31.43;;;15.10;99.90;;;;;;5031009;28;20671;-67
2021/09/24 08:35:54;;;;;;;49.87;29.07;;;15.10;99.90;;;;;;5030946;28;20214;-68
2021/09/24 08:38:21;;;;;;;49.77;28.70;;;15.10;99.90;;;;;;5030859;28;20248;-67
2021/09/24 08:40:49;;;;;;;45.93;27.77;;;15.10;99.90;;;;;;5031862;28;20210;-68
2021/09/24 08:43:16;;;;;;;49.87;28.13;;;15.10;99.90;;;;;;5030843;28;20248;-66
2021/09/24 08:45:43;;;;;;;45.47;27.23;;;15.10;99.90;;;;;;5030691;28;20202;-67
2021/09/24 08:48:14;;;;;;;45.40;28.23;;;15.20;99.90;;;;;;5031169;28;20284;-67
2021/09/24 08:50:43;;;;;;;51.23;28.13;;;15.10;99.90;;;;;;5030680;28;20211;-66
2021/09/24 08:53:14;;;;;;;44.87;27.23;;;15.10;99.90;;;;;;5030309;28;20275;-69
2021/09/24 08:55:45;;;;;;;47.77;27.10;;;15.10;99.90;;;;;;5031060;28;20581;-68
2021/09/24 08:58:13;;;;;;;46.50;27.07;;;15.10;99.90;;;;;;5034443;28;20737;-68
2021/09/24 09:00:42;;;;;;;43.57;25.23;;;15.10;79.30;;;;;;5034279;28;20293;-66
2021/09/24 09:03:13;;;;;;;45.90;25.33;;;15.10;93.10;;;;;;5034520;28;20226;-66
2021/09/24 09:05:42;;;;;;;47.93;25.00;;;15.00;99.90;;;;;;5034149;28;20206;-69
2021/09/24 09:08:15;;;;;;;52.23;26.80;;;15.00;99.90;;;;;;5034518;28;20234;-67
2021/09/24 09:10:46;;;;;;;51.00;27.17;;;15.00;99.90;;;;;;5034320;28;20217;-67
2021/09/24 09:13:15;;;;;;;45.07;25.90;;;15.00;99.90;;;;;;5034267;28;20209;-64
2021/09/24 09:15:53;;;;;;;47.67;25.90;;;15.00;99.90;;;;;;5033915;28;20619;-64
2021/09/24 09:18:21;;;;;;;41.90;24.93;;;15.10;99.90;;;;;;5034004;28;20233;-64
2021/09/24 09:20:50;;;;;;;44.13;26.17;;;15.10;99.90;;;;;;5034496;28;20210;-68
2021/09/24 09:23:19;;;;;;;41.27;23.37;;;15.10;99.90;;;;;;5034012;28;20284;-69
2021/09/24 09:25:49;;;;;;;41.80;25.33;;;15.10;99.90;;;;;;5033426;28;20582;-67
2021/09/24 09:28:25;;;;;;;41.70;24.90;;;15.20;99.90;;;;;;5033483;28;20656;-68
2021/09/24 09:30:52;;;;;;;41.50;24.33;;;15.20;99.90;;;;;;5033737;28;20670;-70
2021/09/24 09:33:22;;;;;;;47.23;26.37;;;15.20;99.90;;;;;;5034152;28;20210;-69
2021/09/24 09:35:51;;;;;;;43.43;24.33;;;15.10;99.90;;;;;;5033571;28;20206;-66
2021/09/24 09:38:23;;;;;;;43.33;24.53;;;15.20;99.90;;;;;;5033041;28;20222;-66
2021/09/24 09:40:53;;;;;;;42.93;24.13;;;15.10;99.90;;;;;;5033447;28;20206;-64
2021/09/24 09:43:22;;;;;;;38.47;22.90;;;15.10;99.90;;;;;;5033640;28;20222;-64
2021/09/24 09:45:50;;;;;;;34.17;20.27;;;15.10;99.90;;;;;;5033509;28;20206;-68
2021/09/24 09:48:16;;;;;;;38.63;23.27;;;15.10;76.40;;;;;;5033713;28;20317;-64
2021/09/24 09:50:45;;;;;;;39.03;22.67;;;15.20;82.10;;;;;;5033489;28;20214;-64
2021/09/24 09:53:15;;;;;;;40.10;23.40;;;15.30;53.60;;;;;;5033611;28;20202;-66
2021/09/24 09:55:43;;;;;;;36.43;22.23;;;15.40;1.00;;;;;;5033204;28;20283;-64
2021/09/24 09:58:12;;;;;;;37.87;23.20;;;15.40;20.10;;;;;;5033333;28;20597;-66
2021/09/24 10:00:59;;;;;;;43.23;25.07;;;15.50;1.00;;;;;;5032714;28;20213;-65
2021/09/24 10:03:32;;;;;;;43.93;25.70;;;15.50;1.00;;;;;;5033557;28;20229;-66
2021/09/24 10:06:03;;;;;;;48.77;26.40;;;15.50;1.00;;;;;;5032852;28;20214;-63
2021/09/24 10:08:31;;;;;;;48.43;27.17;;;15.50;1.00;;;;;;5033392;28;20266;-64
2021/09/24 10:11:02;;;;;;;43.03;24.47;;;15.50;1.00;;;;;;5034477;28;20238;-64
2021/09/24 10:13:33;;;;;;;44.97;26.00;;;15.60;1.00;;;;;;5022025;28;20202;-68
2021/09/24 10:16:01;;;;;;;47.93;25.90;;;15.60;1.00;;;;;;5013158;28;20206;-67
2021/09/24 10:18:28;;;;;;;46.43;26.60;;;15.60;1.00;;;;;;5031788;28;20233;-67
2021/09/24 10:20:54;;;;;;;43.30;24.67;;;15.70;1.00;;;;;;5033078;28;20214;-66
2021/09/24 10:23:22;;;;;;;38.27;22.60;;;15.70;1.00;;;;;;5032972;28;20229;-67
2021/09/24 10:25:56;;;;;;;36.57;22.63;;;15.80;1.00;;;;;;5032933;28;20210;-64
2021/09/24 10:28:32;;;;;;;31.70;20.60;;;15.90;1.00;;;;;;5032882;28;20280;-64
2021/09/24 10:30:59;;;;;;;36.03;20.57;;;15.90;1.00;;;;;;5032287;28;20252;-64
2021/09/24 10:33:48;;;;;;;31.10;18.53;;;16.00;1.00;;;;;;5033003;28;20206;-63
2021/09/24 10:36:39;;;;;;;29.30;18.27;;;16.00;99.90;;;;;;5032887;28;20221;-63
2021/09/24 10:39:44;;;;;;;27.13;16.90;;;16.00;99.90;;;;;;5032918;28;20203;-63
2021/09/24 10:42:29;;;;;;;27.30;17.10;;;16.20;99.90;;;;;;5033005;28;20206;-66
2021/09/24 10:45:02;;;;;;;28.33;16.60;;;16.30;1.00;;;;;;5031627;28;20260;-67
2021/09/24 10:48:03;;;;;;;21.73;14.53;;;16.50;99.90;;;;;;5031901;28;20598;-65
2021/09/24 10:50:54;;;;;;;22.83;15.23;;;16.70;1.00;;;;;;4932519;29;20231;-65
2021/09/24 10:53:23;;;;;;;20.70;13.93;;;16.80;99.90;;;;;;5028680;28;20252;-66
2021/09/24 10:56:25;;;;;;;23.30;14.30;;;16.80;10.80;;;;;;5031465;28;20206;-63
2021/09/24 10:58:52;;;;;;;21.77;13.97;;;16.90;99.90;;;;;;5032625;28;20272;-64
2021/09/24 11:01:30;;;;;;;22.10;13.13;;;17.10;27.70;;;;;;5032221;28;20801;-64
2021/09/24 11:03:58;;;;;;;21.20;13.90;;;17.20;99.90;;;;;;5032383;28;20642;-64
2021/09/24 11:06:38;;;;;;;19.90;13.67;;;17.30;99.90;;;;;;5031721;28;20206;-64
2021/09/24 11:09:06;;;;;;;18.97;12.47;;;17.30;1.00;;;;;;5032279;28;20210;-64
2021/09/24 11:11:35;;;;;;;20.10;13.87;;;17.30;99.90;;;;;;5032088;28;20214;-67
2021/09/24 11:14:31;;;;;;;17.70;13.50;;;17.40;99.90;;;;;;5032080;28;20210;-68
2021/09/24 11:16:59;;;;;;;20.20;13.27;;;17.40;1.00;;;;;;5031954;28;20237;-68
2021/09/24 11:19:47;;;;;;;18.40;13.90;;;17.50;1.00;;;;;;5031467;28;20209;-64
2021/09/24 11:22:20;;;;;;;20.10;13.10;;;17.60;1.00;;;;;;5024797;28;20241;-65
2021/09/24 11:25:03;;;;;;;19.47;13.03;;;17.60;1.00;;;;;;5031558;28;20230;-65
2021/09/24 11:27:36;;;;;;;18.83;12.67;;;17.60;1.00;;;;;;5031703;28;20637;-65
2021/09/24 11:30:15;;;;;;;17.97;12.33;;;17.60;99.90;;;;;;5031898;28;20214;-65
2021/09/24 11:32:44;;;;;;;19.87;13.70;;;17.70;99.90;;;;;;5032037;28;20209;-65
2021/09/24 11:35:11;;;;;;;19.07;12.70;;;17.80;1.00;;;;;;5031212;28;20210;-65
2021/09/24 11:37:41;;;;;;;19.93;12.70;;;17.90;99.90;;;;;;5031707;28;20288;-65
2021/09/24 11:40:11;;;;;;;16.47;13.03;;;18.00;99.90;;;;;;5031813;28;20210;-65
2021/09/24 11:42:41;;;;;;;20.00;12.47;;;18.00;99.90;;;;;;5031836;28;20202;-65
2021/09/24 11:45:10;;;;;;;19.30;12.10;;;18.10;99.90;;;;;;5031305;28;20229;-64
2021/09/24 11:47:41;;;;;;;15.73;11.83;;;18.10;99.90;;;;;;5031841;28;20340;-65
2021/09/24 11:50:09;;;;;;;15.53;11.40;;;18.10;99.90;;;;;;5031132;28;20210;-64
2021/09/24 11:52:43;;;;;;;15.63;11.37;;;18.10;99.90;;;;;;5031641;28;20670;-64
2021/09/24 11:55:15;;;;;;;14.33;10.97;;;18.00;42.20;;;;;;5031340;28;20549;-64
2021/09/24 11:57:59;;;;;;;15.20;11.07;;;18.10;1.00;;;;;;5031528;28;20241;-64
2021/09/24 12:00:26;;;;;;;13.40;10.73;;;18.10;99.90;;;;;;5031332;28;20674;-66
2021/09/24 12:03:09;;;;;;;14.00;9.00;;;18.10;99.90;;;;;;5031338;28;20206;-66
2021/09/24 12:05:36;;;;;;;13.40;9.90;;;18.10;1.00;;;;;;5031321;28;20220;-64
2021/09/24 12:08:04;;;;;;;13.17;9.23;;;18.20;95.70;;;;;;5031483;28;20226;-65
2021/09/24 12:10:31;;;;;;;11.70;9.27;;;18.30;89.80;;;;;;5031190;28;20217;-65
2021/09/24 12:13:10;;;;;;;12.27;8.23;;;18.30;1.00;;;;;;5031266;28;20264;-65
2021/09/24 12:15:54;;;;;;;11.33;8.50;;;18.20;99.90;;;;;;5031369;28;20206;-66
2021/09/24 12:18:22;;;;;;;10.87;7.90;;;18.30;99.90;;;;;;5031368;28;20230;-65
2021/09/24 12:20:59;;;;;;;11.37;8.30;;;18.30;99.90;;;;;;5017361;28;20207;-63
2021/09/24 12:23:25;;;;;;;13.23;8.10;;;18.30;99.90;;;;;;5011363;28;20226;-64
2021/09/24 12:26:00;;;;;;;11.27;8.27;;;18.30;99.90;;;;;;5011345;28;20273;-63
2021/09/24 12:28:29;;;;;;;11.60;7.43;;;18.30;99.90;;;;;;5011319;28;20249;-63
2021/09/24 12:30:56;;;;;;;13.70;7.70;;;18.40;99.90;;;;;;5011848;28;20217;-63
2021/09/24 12:33:24;;;;;;;14.07;7.97;;;18.40;99.90;;;;;;5015419;28;20207;-63